createdAt,value
2018-02-09T00:00:40.156Z,-7.00
2018-02-09T00:03:08.480Z,-7.10
2018-02-09T00:05:36.777Z,-7.10
2018-02-09T00:08:04.353Z,-7.10
2018-02-09T00:10:32.648Z,-7.10
2018-02-09T00:13:00.965Z,-7.10
2018-02-09T00:15:29.260Z,-7.20
2018-02-09T00:17:57.579Z,-7.20
2018-02-09T00:20:25.871Z,-7.20
2018-02-09T00:22:54.187Z,-7.20
2018-02-09T00:25:21.712Z,-7.20
2018-02-09T00:27:50.034Z,-7.20
2018-02-09T00:30:18.328Z,-7.20
2018-02-09T00:32:46.642Z,-7.20
2018-02-09T00:35:14.932Z,-7.20
2018-02-09T00:37:43.242Z,-7.30
2018-02-09T00:40:11.530Z,-7.30
2018-02-09T00:42:39.839Z,-7.30
2018-02-09T00:45:08.129Z,-7.30
2018-02-09T00:47:36.435Z,-7.40
2018-02-09T00:50:04.724Z,-7.40
2018-02-09T00:52:33.043Z,-7.40
2018-02-09T00:55:01.335Z,-7.50
2018-02-09T00:57:29.643Z,-7.50
2018-02-09T00:59:57.931Z,-7.50
2018-02-09T01:02:26.240Z,-7.50
2018-02-09T01:04:54.532Z,-7.50
2018-02-09T01:07:22.844Z,-7.50
2018-02-09T01:09:51.148Z,-7.50
2018-02-09T01:12:19.439Z,-7.60
2018-02-09T01:14:48.264Z,-7.60
2018-02-09T01:17:16.552Z,-7.60
2018-02-09T01:19:44.873Z,-7.60
2018-02-09T01:22:13.164Z,-7.60
2018-02-09T01:24:41.477Z,-7.60
2018-02-09T01:27:09.764Z,-7.60
2018-02-09T01:29:38.072Z,-7.60
2018-02-09T01:32:06.365Z,-7.60
2018-02-09T01:34:34.675Z,-7.60
2018-02-09T01:37:02.963Z,-7.60
2018-02-09T01:39:31.276Z,-7.60
2018-02-09T01:41:59.564Z,-7.70
2018-02-09T01:44:27.875Z,-7.70
2018-02-09T01:46:56.168Z,-7.70
2018-02-09T01:49:24.480Z,-7.70
2018-02-09T01:51:52.767Z,-7.70
2018-02-09T01:54:21.080Z,-7.70
2018-02-09T01:56:49.372Z,-7.70
2018-02-09T01:59:16.920Z,-7.80
2018-02-09T02:01:45.212Z,-7.80
2018-02-09T02:04:12.755Z,-7.80
2018-02-09T02:06:41.048Z,-7.80
2018-02-09T02:09:09.367Z,-7.80
2018-02-09T02:11:37.664Z,-7.80
2018-02-09T02:14:05.974Z,-7.80
2018-02-09T02:16:34.264Z,-7.80
2018-02-09T02:19:02.579Z,-7.90
2018-02-09T02:21:30.873Z,-7.90
2018-02-09T02:23:59.187Z,-7.90
2018-02-09T02:26:27.479Z,-7.90
2018-02-09T02:28:55.796Z,-7.90
2018-02-09T02:31:24.101Z,-7.90
2018-02-09T02:33:52.415Z,-7.90
2018-02-09T02:36:20.704Z,-7.90
2018-02-09T02:38:49.021Z,-7.90
2018-02-09T02:41:17.332Z,-7.90
2018-02-09T02:43:45.652Z,-7.90
2018-02-09T02:46:13.946Z,-8.00
2018-02-09T02:48:42.262Z,-8.00
2018-02-09T02:51:10.556Z,-8.00
2018-02-09T02:53:38.912Z,-8.00
2018-02-09T02:56:07.204Z,-8.00
2018-02-09T02:58:35.500Z,-8.00
2018-02-09T03:01:03.815Z,-8.00
2018-02-09T03:03:32.107Z,-8.00
2018-02-09T03:06:00.425Z,-8.00
2018-02-09T03:08:28.711Z,-8.00
2018-02-09T03:10:57.022Z,-8.00
2018-02-09T03:13:25.312Z,-8.10
2018-02-09T03:15:53.631Z,-8.10
2018-02-09T03:18:21.920Z,-8.10
2018-02-09T03:20:50.227Z,-8.10
2018-02-09T03:23:18.515Z,-8.10
2018-02-09T03:25:46.828Z,-8.20
2018-02-09T03:28:15.115Z,-8.20
2018-02-09T03:30:43.426Z,-8.20
2018-02-09T03:33:11.715Z,-8.30
2018-02-09T03:35:40.025Z,-8.30
2018-02-09T03:38:08.316Z,-8.30
2018-02-09T03:40:36.643Z,-8.30
2018-02-09T03:43:04.939Z,-8.30
2018-02-09T03:45:33.247Z,-8.30
2018-02-09T03:48:01.543Z,-8.30
2018-02-09T03:50:29.857Z,-8.30
2018-02-09T03:52:58.152Z,-8.30
2018-02-09T03:55:25.695Z,-8.30
2018-02-09T03:57:53.987Z,-8.20
2018-02-09T04:00:22.304Z,-8.20
2018-02-09T04:02:50.601Z,-8.20
2018-02-09T04:05:18.912Z,-8.20
2018-02-09T04:07:47.211Z,-8.30
2018-02-09T04:10:15.533Z,-8.30
2018-02-09T04:12:43.829Z,-8.30
2018-02-09T04:15:12.148Z,-8.30
2018-02-09T04:17:40.440Z,-8.40
2018-02-09T04:20:08.755Z,-8.40
2018-02-09T04:22:37.289Z,-8.40
2018-02-09T04:25:05.599Z,-8.40
2018-02-09T04:27:33.892Z,-8.40
2018-02-09T04:30:02.199Z,-8.40
2018-02-09T04:32:30.487Z,-8.40
2018-02-09T04:34:58.801Z,-8.40
2018-02-09T04:37:27.119Z,-8.40
2018-02-09T04:39:55.416Z,-8.40
2018-02-09T04:42:23.740Z,-8.40
2018-02-09T04:44:52.032Z,-8.40
2018-02-09T04:47:20.343Z,-8.40
2018-02-09T04:49:48.681Z,-8.40
2018-02-09T04:52:16.972Z,-8.40
2018-02-09T04:54:45.267Z,-8.40
2018-02-09T04:57:13.578Z,-8.40
2018-02-09T04:59:41.876Z,-8.40
2018-02-09T05:02:10.192Z,-8.40
2018-02-09T05:04:38.479Z,-8.40
2018-02-09T05:07:06.796Z,-8.40
2018-02-09T05:09:35.083Z,-8.40
2018-02-09T05:12:03.396Z,-8.40
2018-02-09T05:14:31.688Z,-8.40
2018-02-09T05:17:00.000Z,-8.40
2018-02-09T05:19:28.292Z,-8.40
2018-02-09T05:21:56.600Z,-8.50
2018-02-09T05:24:24.887Z,-8.50
2018-02-09T05:26:53.202Z,-8.50
2018-02-09T05:29:21.492Z,-8.50
2018-02-09T05:31:49.812Z,-8.50
2018-02-09T05:34:18.099Z,-8.50
2018-02-09T05:36:46.416Z,-8.50
2018-02-09T05:39:14.709Z,-8.50
2018-02-09T05:41:43.020Z,-8.50
2018-02-09T05:44:11.307Z,-8.50
2018-02-09T05:46:39.615Z,-8.50
2018-02-09T05:49:07.907Z,-8.50
2018-02-09T05:51:36.228Z,-8.50
2018-02-09T05:54:04.520Z,-8.60
2018-02-09T05:56:32.832Z,-8.60
2018-02-09T05:59:01.123Z,-8.60
2018-02-09T06:01:29.432Z,-8.60
2018-02-09T06:03:57.720Z,-8.50
2018-02-09T06:06:26.036Z,-8.50
2018-02-09T06:08:54.327Z,-8.50
2018-02-09T06:11:22.639Z,-8.50
2018-02-09T06:13:50.928Z,-8.50
2018-02-09T06:16:19.244Z,-8.50
2018-02-09T06:18:47.540Z,-8.50
2018-02-09T06:21:15.833Z,-8.50
2018-02-09T06:23:44.153Z,-8.50
2018-02-09T06:26:12.460Z,-8.50
2018-02-09T06:28:40.780Z,-8.50
2018-02-09T06:31:09.084Z,-8.50
2018-02-09T06:33:37.400Z,-8.50
2018-02-09T06:36:05.687Z,-8.50
2018-02-09T06:38:33.994Z,-8.50
2018-02-09T06:41:02.288Z,-8.30
2018-02-09T06:43:30.607Z,-8.00
2018-02-09T06:45:58.904Z,-7.50
2018-02-09T06:48:28.199Z,-7.10
2018-02-09T06:50:56.496Z,-6.70
2018-02-09T06:53:24.821Z,-6.30
2018-02-09T06:55:53.118Z,-6.00
2018-02-09T06:58:21.440Z,-5.80
2018-02-09T07:00:49.732Z,-5.60
2018-02-09T07:03:18.044Z,-5.40
2018-02-09T07:05:46.338Z,-5.20
2018-02-09T07:08:14.645Z,-5.10
2018-02-09T07:10:42.935Z,-5.00
2018-02-09T07:13:11.279Z,-4.90
2018-02-09T07:15:39.576Z,-4.80
2018-02-09T07:18:07.896Z,-4.70
2018-02-09T07:20:36.233Z,-4.60
2018-02-09T07:23:04.527Z,-4.50
2018-02-09T07:25:32.824Z,-4.40
2018-02-09T07:28:01.144Z,-4.30
2018-02-09T07:30:29.437Z,-4.20
2018-02-09T07:32:57.762Z,-4.10
2018-02-09T07:35:26.056Z,-4.00
2018-02-09T07:37:54.371Z,-3.90
2018-02-09T07:40:22.661Z,-3.80
2018-02-09T07:42:50.976Z,-3.70
2018-02-09T07:45:19.280Z,-3.70
2018-02-09T07:47:47.596Z,-3.50
2018-02-09T07:50:15.895Z,-3.40
2018-02-09T07:52:44.204Z,-3.30
2018-02-09T07:55:12.507Z,-3.20
2018-02-09T07:57:40.822Z,-3.10
2018-02-09T08:00:09.116Z,-3.00
2018-02-09T08:02:37.416Z,-2.90
2018-02-09T08:05:04.964Z,-2.90
2018-02-09T08:07:33.253Z,-2.80
2018-02-09T08:10:01.576Z,-2.70
2018-02-09T08:12:29.868Z,-2.70
2018-02-09T08:14:58.188Z,-2.60
2018-02-09T08:17:26.487Z,-2.50
2018-02-09T08:19:54.836Z,-2.40
2018-02-09T08:22:23.138Z,-2.30
2018-02-09T08:24:51.452Z,-2.20
2018-02-09T08:27:19.740Z,-2.20
2018-02-09T08:29:48.052Z,-2.10
2018-02-09T08:32:16.351Z,-2.20
2018-02-09T08:34:44.668Z,-2.10
2018-02-09T08:37:12.958Z,-2.10
2018-02-09T08:39:41.280Z,-2.10
2018-02-09T08:42:09.567Z,-2.10
2018-02-09T08:44:37.880Z,-2.00
2018-02-09T08:47:06.168Z,-1.90
2018-02-09T08:49:34.483Z,-1.90
2018-02-09T08:52:02.781Z,-1.80
2018-02-09T08:54:31.095Z,-1.70
2018-02-09T08:56:59.383Z,-1.70
2018-02-09T08:59:27.696Z,-1.60
2018-02-09T09:01:55.988Z,-1.40
2018-02-09T09:04:24.307Z,-1.40
2018-02-09T09:06:52.596Z,-1.30
2018-02-09T09:09:20.907Z,-1.10
2018-02-09T09:11:49.196Z,-1.10
2018-02-09T09:14:17.507Z,-1.10
2018-02-09T09:16:45.796Z,-1.10
2018-02-09T09:19:14.116Z,-1.00
2018-02-09T09:21:41.644Z,-1.00
2018-02-09T09:24:09.960Z,-1.00
2018-02-09T09:26:38.262Z,-1.00
2018-02-09T09:29:06.576Z,-0.90
2018-02-09T09:31:34.859Z,-0.80
2018-02-09T09:34:03.172Z,-0.80
2018-02-09T09:36:30.697Z,-0.80
2018-02-09T09:38:59.011Z,-0.80
2018-02-09T09:41:27.304Z,-0.80
2018-02-09T09:43:55.596Z,-0.90
2018-02-09T09:46:23.929Z,-0.80
2018-02-09T09:48:52.231Z,-0.90
2018-02-09T09:51:20.548Z,-0.90
2018-02-09T09:53:48.843Z,-0.90
2018-02-09T09:56:17.155Z,-0.90
2018-02-09T09:58:45.448Z,-1.00
2018-02-09T10:01:19.406Z,-1.10
2018-02-09T10:03:47.704Z,-1.20
2018-02-09T10:06:16.020Z,-1.20
2018-02-09T10:08:44.307Z,-1.20
2018-02-09T10:11:12.623Z,-1.30
2018-02-09T10:13:40.916Z,-1.20
2018-02-09T10:16:09.236Z,-1.00
2018-02-09T10:18:37.523Z,-1.00
2018-02-09T10:21:05.843Z,-1.00
2018-02-09T10:23:34.135Z,-0.90
2018-02-09T10:26:02.462Z,-0.80
2018-02-09T10:28:30.756Z,-0.90
2018-02-09T10:30:58.328Z,-0.90
2018-02-09T10:33:26.624Z,-0.90
2018-02-09T10:35:54.950Z,-0.80
2018-02-09T10:38:23.248Z,-0.60
2018-02-09T10:40:51.588Z,-0.60
2018-02-09T10:43:19.882Z,-0.60
2018-02-09T10:45:47.431Z,-0.60
2018-02-09T10:48:15.729Z,-0.50
2018-02-09T10:50:44.040Z,-0.50
2018-02-09T10:53:12.330Z,-0.50
2018-02-09T10:55:40.644Z,-0.50
2018-02-09T10:58:08.952Z,-0.40
2018-02-09T11:00:42.808Z,-0.40
2018-02-09T11:03:11.100Z,-0.30
2018-02-09T11:05:39.411Z,-0.30
2018-02-09T11:08:07.704Z,-0.30
2018-02-09T11:10:36.020Z,-0.30
2018-02-09T11:13:20.976Z,-0.20
2018-02-09T11:15:49.295Z,-0.20
2018-02-09T11:18:17.583Z,-0.10
2018-02-09T11:20:45.891Z,0.00
2018-02-09T11:23:14.236Z,0.00
2018-02-09T11:25:42.543Z,0.10
2018-02-09T11:28:10.838Z,0.00
2018-02-09T11:30:39.140Z,0.00
2018-02-09T11:33:07.430Z,0.10
2018-02-09T11:35:35.735Z,0.30
2018-02-09T11:38:04.028Z,0.40
2018-02-09T11:40:32.375Z,0.60
2018-02-09T11:43:00.664Z,0.60
2018-02-09T11:45:28.955Z,0.50
2018-02-09T11:47:56.504Z,0.40
2018-02-09T11:50:24.791Z,0.40
2018-02-09T11:52:53.099Z,0.60
2018-02-09T11:55:21.402Z,0.70
2018-02-09T11:57:49.736Z,0.70
2018-02-09T12:00:18.036Z,0.70
2018-02-09T12:02:46.348Z,0.70
2018-02-09T12:05:14.635Z,0.60
2018-02-09T12:07:42.948Z,0.60
2018-02-09T12:10:11.240Z,0.70
2018-02-09T12:12:39.548Z,0.70
2018-02-09T12:15:07.841Z,0.80
2018-02-09T12:17:36.192Z,1.00
2018-02-09T12:20:04.463Z,1.10
2018-02-09T12:22:32.771Z,1.30
2018-02-09T12:25:01.059Z,1.40
2018-02-09T12:27:29.368Z,1.50
2018-02-09T12:29:57.656Z,1.60
2018-02-09T12:32:25.964Z,1.70
2018-02-09T12:34:54.248Z,1.80
2018-02-09T12:37:22.589Z,1.80
2018-02-09T12:39:50.883Z,1.80
2018-02-09T12:42:19.196Z,1.80
2018-02-09T12:44:47.485Z,1.60
2018-02-09T12:47:15.792Z,1.70
2018-02-09T12:49:44.087Z,1.60
2018-02-09T12:52:12.400Z,1.70
2018-02-09T12:54:40.687Z,1.80
2018-02-09T12:57:08.992Z,1.70
2018-02-09T12:59:37.284Z,1.50
2018-02-09T13:02:04.840Z,1.60
2018-02-09T13:04:33.128Z,1.40
2018-02-09T13:07:01.439Z,1.40
2018-02-09T13:09:29.737Z,1.50
2018-02-09T13:11:58.048Z,1.60
2018-02-09T13:14:38.137Z,1.60
2018-02-09T13:17:06.444Z,1.60
2018-02-09T13:19:34.731Z,1.70
2018-02-09T13:22:03.036Z,1.70
2018-02-09T13:24:31.324Z,1.80
2018-02-09T13:26:59.636Z,1.80
2018-02-09T13:29:27.924Z,1.70
2018-02-09T13:31:56.232Z,1.60
2018-02-09T13:34:24.540Z,1.40
2018-02-09T13:50:13.520Z,1.30
2018-02-09T13:52:41.874Z,1.50
2018-02-09T13:55:10.163Z,1.70
2018-02-09T13:57:38.452Z,1.80
2018-02-09T14:00:06.755Z,1.80
2018-02-09T14:02:35.048Z,1.80
2018-02-09T14:05:03.363Z,1.70
2018-02-09T14:07:31.647Z,1.60
2018-02-09T14:09:59.956Z,1.50
2018-02-09T14:12:28.245Z,1.40
2018-02-09T14:14:56.559Z,1.40
2018-02-09T14:17:24.840Z,1.30
2018-02-09T14:19:53.152Z,1.30
2018-02-09T14:22:21.448Z,1.20
2018-02-09T14:24:49.760Z,1.20
2018-02-09T14:27:18.055Z,1.20
2018-02-09T14:29:46.364Z,1.20
2018-02-09T14:32:14.648Z,1.20
2018-02-09T14:34:42.972Z,1.10
2018-02-09T14:37:11.271Z,1.20
2018-02-09T14:39:39.588Z,1.20
2018-02-09T14:42:07.879Z,1.20
2018-02-09T14:44:36.185Z,1.20
2018-02-09T14:47:04.472Z,1.20
2018-02-09T14:49:32.783Z,1.20
2018-02-09T14:52:01.067Z,1.10
2018-02-09T14:54:29.380Z,1.00
2018-02-09T14:56:57.671Z,0.90
2018-02-09T14:59:25.980Z,0.90
2018-02-09T15:01:54.267Z,0.80
2018-02-09T15:04:22.587Z,0.80
2018-02-09T15:06:50.868Z,0.80
2018-02-09T15:09:19.175Z,0.90
2018-02-09T15:11:47.467Z,0.90
2018-02-09T15:14:15.783Z,1.00
2018-02-09T15:16:44.067Z,1.00
2018-02-09T15:19:12.384Z,0.90
2018-02-09T15:21:40.697Z,0.90
2018-02-09T15:24:09.009Z,0.80
2018-02-09T15:26:37.308Z,0.80
2018-02-09T15:29:05.615Z,0.80
2018-02-09T15:31:33.900Z,0.80
2018-02-09T15:34:02.216Z,0.90
2018-02-09T15:36:30.509Z,0.80
2018-02-09T15:38:58.804Z,0.90
2018-02-09T15:41:27.128Z,0.90
2018-02-09T15:43:55.412Z,0.90
2018-02-09T15:46:23.720Z,0.90
2018-02-09T15:48:52.963Z,0.80
2018-02-09T15:51:21.277Z,0.80
2018-02-09T15:53:49.569Z,0.70
2018-02-09T15:56:17.888Z,0.70
2018-02-09T15:58:47.143Z,0.80
2018-02-09T16:01:15.456Z,0.70
2018-02-09T16:03:43.752Z,0.60
2018-02-09T16:06:12.056Z,0.60
2018-02-09T16:08:40.339Z,0.60
2018-02-09T16:11:08.646Z,0.60
2018-02-09T16:13:36.935Z,0.50
2018-02-09T16:16:05.244Z,0.50
2018-02-09T16:18:33.553Z,0.50
2018-02-09T16:21:01.863Z,0.50
2018-02-09T16:23:30.161Z,0.50
2018-02-09T16:25:58.468Z,0.40
2018-02-09T16:28:26.753Z,0.40
2018-02-09T16:30:55.061Z,0.40
2018-02-09T16:33:23.347Z,0.40
2018-02-09T16:35:51.656Z,0.30
2018-02-09T16:38:19.944Z,0.20
2018-02-09T16:40:48.255Z,0.20
2018-02-09T16:43:16.545Z,0.20
2018-02-09T16:45:44.860Z,0.20
2018-02-09T16:48:13.146Z,0.20
2018-02-09T16:50:41.453Z,0.20
2018-02-09T16:53:09.740Z,0.20
2018-02-09T16:55:38.049Z,0.20
2018-02-09T16:58:06.336Z,0.20
2018-02-09T17:00:34.644Z,0.20
2018-02-09T17:03:02.932Z,0.20
2018-02-09T17:05:31.240Z,0.20
2018-02-09T17:07:59.532Z,0.10
2018-02-09T17:10:27.840Z,0.10
2018-02-09T17:12:56.123Z,0.20
2018-02-09T17:15:24.432Z,0.10
2018-02-09T17:17:51.959Z,0.10
2018-02-09T17:20:20.248Z,0.10
2018-02-09T17:22:48.576Z,0.10
2018-02-09T17:25:16.859Z,0.10
2018-02-09T17:27:45.179Z,0.10
2018-02-09T17:30:13.464Z,0.10
2018-02-09T17:32:41.776Z,0.10
2018-02-09T17:35:10.064Z,0.20
2018-02-09T17:37:38.373Z,0.20
2018-02-09T17:40:06.663Z,0.20
2018-02-09T17:42:34.221Z,0.20
2018-02-09T17:45:02.516Z,0.20
2018-02-09T17:47:30.844Z,0.20
2018-02-09T17:49:59.141Z,0.20
2018-02-09T17:52:27.448Z,0.20
2018-02-09T17:54:55.738Z,0.20
2018-02-09T17:57:24.073Z,0.20
2018-02-09T17:59:52.363Z,0.20
2018-02-09T18:02:20.677Z,0.30
2018-02-09T18:04:48.963Z,0.30
2018-02-09T18:07:17.268Z,0.30
2018-02-09T18:09:45.556Z,0.30
2018-02-09T18:12:13.888Z,0.30
2018-02-09T18:14:42.177Z,0.30
2018-02-09T18:17:10.510Z,0.30
2018-02-09T18:19:38.888Z,0.30
2018-02-09T18:22:07.216Z,0.30
2018-02-09T18:24:34.763Z,0.30
2018-02-09T18:27:03.091Z,0.30
2018-02-09T18:29:31.424Z,0.40
2018-02-09T18:31:59.731Z,0.40
2018-02-09T18:34:28.024Z,0.30
2018-02-09T18:36:56.332Z,0.30
2018-02-09T18:39:24.627Z,0.30
2018-02-09T18:41:52.951Z,0.30
2018-02-09T18:44:21.237Z,0.30
2018-02-09T18:46:49.567Z,0.30
2018-02-09T18:49:17.859Z,0.40
2018-02-09T18:51:46.172Z,0.40
2018-02-09T18:54:14.484Z,0.40
2018-02-09T18:56:42.772Z,0.40
2018-02-09T18:59:11.084Z,0.40
2018-02-09T19:01:39.369Z,0.40
2018-02-09T19:04:07.683Z,0.40
2018-02-09T19:06:35.969Z,0.40
2018-02-09T19:09:04.279Z,0.30
2018-02-09T19:11:32.585Z,0.30
2018-02-09T19:14:00.895Z,0.30
2018-02-09T19:16:29.179Z,0.30
2018-02-09T19:18:57.487Z,0.30
2018-02-09T19:21:25.024Z,0.30
2018-02-09T19:23:53.339Z,0.20
2018-02-09T19:26:21.623Z,0.20
2018-02-09T19:28:49.996Z,0.20
2018-02-09T19:31:18.312Z,0.20
2018-02-09T19:33:46.768Z,0.20
2018-02-09T19:36:15.059Z,0.20
2018-02-09T19:38:43.363Z,0.20
2018-02-09T19:41:11.656Z,0.20
2018-02-09T19:43:40.044Z,0.20
2018-02-09T19:46:08.333Z,0.20
2018-02-09T19:48:36.641Z,0.20
2018-02-09T19:51:04.924Z,0.20
2018-02-09T19:53:32.468Z,0.20
2018-02-09T19:56:00.756Z,0.20
2018-02-09T19:58:29.060Z,0.20
2018-02-09T20:00:57.344Z,0.20
2018-02-09T20:03:25.699Z,0.20
2018-02-09T20:05:53.993Z,0.30
2018-02-09T20:08:22.304Z,0.30
2018-02-09T20:10:50.591Z,0.30
2018-02-09T20:13:18.920Z,0.30
2018-02-09T20:15:47.216Z,0.30
2018-02-09T20:18:15.527Z,0.30
2018-02-09T20:20:43.811Z,0.40
2018-02-09T20:23:12.172Z,0.40
2018-02-09T20:25:40.428Z,0.40
2018-02-09T20:28:08.759Z,0.40
2018-02-09T20:30:37.052Z,0.40
2018-02-09T20:33:05.371Z,0.40
2018-02-09T20:35:33.659Z,0.40
2018-02-09T20:38:01.949Z,0.50
2018-02-09T20:40:30.255Z,0.50
2018-02-09T20:42:58.575Z,0.50
2018-02-09T20:45:26.889Z,0.50
2018-02-09T20:47:55.189Z,0.50
2018-02-09T20:50:23.502Z,0.50
2018-02-09T20:52:51.800Z,0.50
2018-02-09T20:55:20.108Z,0.60
2018-02-09T20:57:48.396Z,0.60
2018-02-09T21:00:16.704Z,0.60
2018-02-09T21:02:44.992Z,0.60
2018-02-09T21:05:13.324Z,0.60
2018-02-09T21:07:41.629Z,0.60
2018-02-09T21:10:09.970Z,0.50
2018-02-09T21:12:38.283Z,0.50
2018-02-09T21:15:06.645Z,0.50
2018-02-09T21:17:34.935Z,0.50
2018-02-09T21:20:03.248Z,0.60
2018-02-09T21:22:31.555Z,0.60
2018-02-09T21:24:59.100Z,0.60
2018-02-09T21:27:27.388Z,0.60
2018-02-09T21:29:55.695Z,0.60
2018-02-09T21:32:23.985Z,0.60
2018-02-09T21:34:52.293Z,0.60
2018-02-09T21:37:20.598Z,0.60
2018-02-09T21:39:48.908Z,0.60
2018-02-09T21:42:17.201Z,0.60
2018-02-09T21:44:45.512Z,0.60
2018-02-09T21:47:13.797Z,0.60
2018-02-09T21:49:42.107Z,0.60
2018-02-09T21:52:10.397Z,0.60
2018-02-09T21:54:38.707Z,0.60
2018-02-09T21:57:07.000Z,0.60
2018-02-09T21:59:35.307Z,0.60
2018-02-09T22:02:03.592Z,0.60
2018-02-09T22:04:31.132Z,0.60
2018-02-09T22:06:59.425Z,0.60
2018-02-09T22:09:27.736Z,0.60
2018-02-09T22:11:56.020Z,0.60
2018-02-09T22:14:24.337Z,0.60
2018-02-09T22:16:52.633Z,0.60
2018-02-09T22:19:20.920Z,0.60
2018-02-09T22:21:49.232Z,0.60
2018-02-09T22:24:17.519Z,0.60
2018-02-09T22:26:45.832Z,0.60
2018-02-09T22:29:14.125Z,0.70
2018-02-09T22:31:42.440Z,0.60
2018-02-09T22:34:10.727Z,0.60
2018-02-09T22:36:39.040Z,0.70
2018-02-09T22:39:07.328Z,0.70
2018-02-09T22:41:35.640Z,0.70
2018-02-09T22:44:03.933Z,0.70
2018-02-09T22:46:32.245Z,0.70
2018-02-09T22:49:00.531Z,0.70
2018-02-09T22:51:28.080Z,0.70
2018-02-09T22:53:56.372Z,0.70
2018-02-09T22:56:24.679Z,0.70
2018-02-09T22:58:52.968Z,0.70
2018-02-09T23:01:21.280Z,0.70
2018-02-09T23:03:49.567Z,0.70
2018-02-09T23:06:17.875Z,0.80
2018-02-09T23:08:46.167Z,0.80
2018-02-09T23:11:14.476Z,0.80
2018-02-09T23:13:42.776Z,0.80
2018-02-09T23:16:11.088Z,0.80
2018-02-09T23:18:39.372Z,0.80
2018-02-09T23:21:07.679Z,0.80
2018-02-09T23:23:35.199Z,0.80
2018-02-09T23:26:03.511Z,0.80
2018-02-09T23:28:31.800Z,0.80
2018-02-09T23:31:00.108Z,0.90
2018-02-09T23:33:28.391Z,0.90
2018-02-09T23:35:56.699Z,0.90
2018-02-09T23:38:25.717Z,0.90
2018-02-09T23:40:54.027Z,0.90
2018-02-09T23:43:22.316Z,0.90
2018-02-09T23:45:50.619Z,0.90
2018-02-09T23:48:18.903Z,0.90
2018-02-09T23:50:47.215Z,0.90
2018-02-09T23:53:15.503Z,0.90
2018-02-09T23:55:43.807Z,0.90
2018-02-09T23:58:12.091Z,0.90
